CDT,Max TemperatureF,Mean TemperatureF,Min TemperatureF,Max Dew PointF,MeanDew PointF,Min DewpointF,Max Humidity, Mean Humidity, Min Humidity, Max Sea Level PressureIn, Mean Sea Level PressureIn, Min Sea Level PressureIn, Max VisibilityMiles, Mean VisibilityMiles, Min VisibilityMiles, Max Wind SpeedMPH, Mean Wind SpeedMPH, Max Gust SpeedMPH,PrecipitationIn, CloudCover, Events, WindDirDegrees
2012-10-1,71,58,46,48,45,43,87,64,43,29.94,29.89,29.85,10,10,10,14,3,21,0.00,0,,343
2012-10-2,71,54,37,46,41,36,93,64,29,29.98,29.93,29.87,10,10,10,9,2,,0.00,0,,124
2012-10-3,78,60,41,50,45,39,100,64,28,29.94,29.90,29.85,10,10,4,14,3,18,0.00,0,,123
2012-10-4,64,54,44,46,36,27,67,52,38,30.15,29.99,29.82,10,10,7,24,15,34,0.00,3,,268
2012-10-5,48,42,37,32,26,25,66,53,40,30.14,30.12,30.09,10,10,10,21,14,30,0.00,6,,297
2012-10-6,44,40,37,28,25,19,70,56,37,30.26,30.21,30.13,10,10,10,13,8,21,0.00,8,,331
2012-10-7,53,38,23,27,21,18,93,52,24,30.23,30.10,29.93,10,10,10,14,4,21,0.00,1,,237
2012-10-8,66,52,37,39,30,21,65,44,24,29.93,29.77,29.61,10,10,7,16,6,29,0.00,5,Rain,202
2012-10-9,53,47,41,46,35,23,87,63,40,29.97,29.82,29.74,10,10,5,21,7,30,0.02,6,Rain,288
2012-10-10,51,38,26,28,25,21,93,54,30,30.11,30.03,29.91,10,10,10,18,6,23,0.00,0,,266
2012-10-11,53,40,28,34,25,12,70,45,21,30.39,30.10,29.83,10,10,10,18,8,28,0.00,1,Rain,327
2012-10-12,53,37,21,27,20,16,93,53,22,30.46,30.33,30.10,10,10,10,13,3,20,0.00,1,,150
2012-10-13,55,48,42,54,46,23,100,89,37,30.09,29.82,29.69,10,5,0,10,6,,0.04,8,Rain-Thunderstorm,128
2012-10-14,57,47,37,48,40,30,94,75,38,29.87,29.76,29.69,10,10,7,14,6,24,0.00,5,,3
2012-10-15,62,46,30,41,36,30,100,66,37,29.97,29.90,29.79,10,10,5,8,2,,0.00,1,,187
2012-10-16,66,56,46,50,45,39,93,66,52,29.79,29.58,29.40,10,10,10,15,6,16,0.01,2,Rain-Thunderstorm,133
2012-10-17,62,53,44,54,46,39,100,73,45,29.39,29.28,29.22,10,9,5,17,8,25,0.00,6,Rain,223
2012-10-18,50,46,39,43,41,37,93,83,66,29.40,29.27,29.19,10,9,2,10,6,18,0.00,7,,260
2012-10-19,51,42,32,45,41,30,100,89,62,29.74,29.58,29.40,10,8,2,9,1,,0.10,5,Rain,17
2012-10-20,53,42,30,45,37,28,100,88,67,29.86,29.81,29.74,10,5,0,7,1,,0.00,4,Fog-Snow,223
2012-10-21,71,56,41,50,44,39,93,72,40,29.90,29.85,29.79,10,9,5,16,6,22,0.00,1,,125
2012-10-22,62,56,50,54,50,46,94,78,59,29.93,29.90,29.87,10,10,5,13,5,18,0.12,6,Rain-Thunderstorm,92
2012-10-23,62,58,55,61,57,54,100,92,88,29.87,29.78,29.71,7,3,1,16,8,21,0.03,7,Rain-Thunderstorm,121
2012-10-24,62,58,53,61,57,52,100,94,88,29.85,29.77,29.70,10,4,0,15,1,,0.08,8,Fog-Rain-Thunderstorm,330
2012-10-25,51,44,37,52,38,28,100,85,65,30.15,29.83,29.61,10,8,1,18,9,29,1.36,8,Rain-Thunderstorm,319
2012-10-26,42,37,32,28,25,21,80,62,45,30.37,30.31,30.15,10,10,10,16,9,22,0.00,6,,283
2012-10-27,44,34,24,28,23,18,100,71,34,30.39,30.35,30.31,10,9,7,10,1,,0.00,1,,288
2012-10-28,48,34,21,30,22,19,100,70,32,30.38,30.34,30.29,10,9,5,12,2,,0.00,2,,181
2012-10-29,46,35,24,30,26,21,93,70,43,30.36,30.31,30.25,10,10,7,9,2,,0.00,4,,111
2012-10-30,50,38,26,30,24,19,86,62,32,30.25,30.15,30.06,10,10,7,15,2,20,0.00,0,,15
2012-10-31,50,36,21,25,19,10,86,57,20,30.06,30.00,29.94,10,10,10,10,3,17,0.00,1,,306